createdAt,value
2023-03-24T00:00:09.141Z,93.18
2023-03-24T00:05:11.843Z,93.26
2023-03-24T00:10:15.849Z,93.26
2023-03-24T00:15:21.408Z,93.29
2023-03-24T00:20:23.589Z,93.24
2023-03-24T00:25:36.027Z,93.17
2023-03-24T00:30:37.809Z,93.50
2023-03-24T00:35:39.704Z,93.41
2023-03-24T00:40:46.369Z,92.73
2023-03-24T00:45:48.241Z,92.29
2023-03-24T00:50:50.823Z,92.17
2023-03-24T00:55:54.309Z,91.80
2023-03-24T01:00:57.355Z,91.31
2023-03-24T01:06:02.362Z,91.22
2023-03-24T01:11:06.885Z,91.72
2023-03-24T01:16:09.493Z,92.62
2023-03-24T01:21:11.826Z,94.02
2023-03-24T01:26:15.396Z,94.78
2023-03-24T01:31:17.156Z,95.43
2023-03-24T01:36:18.970Z,95.69
2023-03-24T01:41:22.089Z,96.78
2023-03-24T01:46:23.864Z,97.40
2023-03-24T01:51:27.210Z,98.01
2023-03-24T01:56:32.492Z,98.45
2023-03-24T02:01:34.290Z,98.85
2023-03-24T02:06:48.981Z,98.73
2023-03-24T02:11:51.997Z,98.66
2023-03-24T02:17:01.976Z,98.74
2023-03-24T02:22:36.774Z,99.33
2023-03-24T02:28:04.613Z,99.23
2023-03-24T02:33:36.606Z,99.57
2023-03-24T02:38:57.391Z,99.78
2023-03-24T02:44:03.121Z,99.71
2023-03-24T02:49:10.102Z,99.20
2023-03-24T02:54:13.306Z,99.00
2023-03-24T02:59:18.641Z,98.76
2023-03-24T03:04:25.981Z,99.02
2023-03-24T03:09:29.307Z,98.87
2023-03-24T03:14:34.092Z,98.68
2023-03-24T03:19:38.681Z,98.60
2023-03-24T03:24:41.355Z,98.58
2023-03-24T03:29:46.138Z,98.51
2023-03-24T03:34:51.195Z,98.66
2023-03-24T03:39:57.459Z,98.60
2023-03-24T03:45:00.765Z,98.70
2023-03-24T03:50:02.685Z,99.67
2023-03-24T03:55:06.847Z,99.78
2023-03-24T04:00:15.647Z,99.39
2023-03-24T04:05:29.212Z,100.00
2023-03-24T04:11:23.270Z,100.00
2023-03-24T04:16:59.800Z,100.00
2023-03-24T04:22:17.237Z,100.00
2023-03-24T04:27:27.035Z,100.00
2023-03-24T04:32:32.409Z,100.00
2023-03-24T04:37:37.839Z,100.00
2023-03-24T04:42:47.542Z,100.00
2023-03-24T04:47:53.708Z,100.00
2023-03-24T04:53:07.400Z,100.00
2023-03-24T04:58:09.334Z,100.00
2023-03-24T05:03:15.492Z,100.00
2023-03-24T05:08:17.612Z,100.00
2023-03-24T05:13:19.841Z,100.00
2023-03-24T05:18:26.870Z,100.00
2023-03-24T05:23:28.951Z,100.00
2023-03-24T05:28:32.052Z,100.00
2023-03-24T05:33:35.619Z,100.00
2023-03-24T05:38:37.862Z,100.00
2023-03-24T05:43:39.913Z,100.00
2023-03-24T05:48:49.138Z,99.45
2023-03-24T05:53:52.594Z,99.33
2023-03-24T05:58:59.010Z,99.20
2023-03-24T06:04:20.783Z,98.81
2023-03-24T06:09:24.513Z,98.49
2023-03-24T06:14:26.616Z,97.71
2023-03-24T06:19:40.651Z,97.42
2023-03-24T06:25:09.773Z,97.47
2023-03-24T06:30:15.616Z,97.36
2023-03-24T06:35:18.941Z,97.68
2023-03-24T06:40:29.024Z,97.78
2023-03-24T06:45:34.117Z,97.10
2023-03-24T06:50:39.373Z,97.21
2023-03-24T06:55:44.906Z,97.63
2023-03-24T07:00:48.291Z,99.51
2023-03-24T07:06:11.774Z,100.00
2023-03-24T07:11:14.567Z,100.00
2023-03-24T07:16:24.570Z,100.00
2023-03-24T07:21:38.503Z,100.00
2023-03-24T07:26:40.952Z,100.00
2023-03-24T07:32:03.857Z,100.00
2023-03-24T07:37:07.091Z,100.00
2023-03-24T07:42:10.427Z,100.00
2023-03-24T07:47:45.649Z,100.00
2023-03-24T07:52:49.993Z,100.00
2023-03-24T07:57:54.811Z,100.00
2023-03-24T08:03:00.045Z,100.00
2023-03-24T08:08:41.097Z,100.00
2023-03-24T08:13:42.852Z,97.75
2023-03-24T08:18:44.598Z,95.41
2023-03-24T08:23:47.636Z,76.17
2023-03-24T08:28:49.609Z,74.82
2023-03-24T08:33:51.392Z,78.05
2023-03-24T08:38:55.470Z,82.11
2023-03-24T08:43:57.189Z,81.37
2023-03-24T08:48:59.266Z,78.63
2023-03-24T08:54:03.868Z,77.54
2023-03-24T08:59:06.639Z,73.68
2023-03-24T09:04:08.373Z,47.84
2023-03-24T09:09:11.396Z,40.34
2023-03-24T09:14:13.105Z,39.18
2023-03-24T09:19:14.767Z,40.33
2023-03-24T09:24:17.851Z,46.37
2023-03-24T09:29:19.527Z,52.51
2023-03-24T09:34:21.490Z,54.86
2023-03-24T09:39:24.999Z,49.39
2023-03-24T09:44:28.165Z,48.18
2023-03-24T09:49:32.549Z,48.65
2023-03-24T09:54:39.809Z,45.81
2023-03-24T09:59:41.528Z,46.52
2023-03-24T10:04:43.258Z,49.56
2023-03-24T10:09:47.463Z,50.75
2023-03-24T10:15:05.607Z,48.26
2023-03-24T10:20:15.732Z,49.80
2023-03-24T10:25:21.869Z,53.46
2023-03-24T10:30:24.201Z,51.89
2023-03-24T10:35:28.065Z,43.93
2023-03-24T10:40:33.231Z,47.66
2023-03-24T10:45:36.685Z,41.71
2023-03-24T10:50:42.115Z,39.24
2023-03-24T10:55:45.544Z,36.64
2023-03-24T11:00:47.649Z,44.23
2023-03-24T11:05:49.585Z,49.91
2023-03-24T11:10:52.852Z,52.78
2023-03-24T11:15:56.661Z,52.17
2023-03-24T11:21:00.854Z,56.06
2023-03-24T11:26:07.457Z,55.94
2023-03-24T11:31:10.229Z,54.47
2023-03-24T11:36:45.366Z,56.45
2023-03-24T11:41:59.434Z,54.34
2023-03-24T11:47:04.526Z,53.81
2023-03-24T11:52:06.676Z,55.53
2023-03-24T11:57:12.334Z,56.03
2023-03-24T12:02:19.794Z,54.70
2023-03-24T12:07:44.163Z,54.30
2023-03-24T12:12:51.553Z,54.39
2023-03-24T12:17:56.999Z,53.25
2023-03-24T12:22:59.922Z,55.56
2023-03-24T12:28:13.389Z,56.31
2023-03-24T12:33:28.852Z,57.41
2023-03-24T12:38:36.949Z,57.85
2023-03-24T12:43:45.372Z,57.80
2023-03-24T12:48:54.597Z,57.29
2023-03-24T12:54:05.206Z,59.01
2023-03-24T12:59:10.463Z,55.88
2023-03-24T13:04:14.446Z,57.58
2023-03-24T13:09:21.040Z,55.98
2023-03-24T13:14:27.483Z,55.32
2023-03-24T13:19:29.176Z,55.23
2023-03-24T13:24:31.711Z,56.42
2023-03-24T13:30:11.146Z,55.96
2023-03-24T13:35:18.140Z,55.32
2023-03-24T13:40:21.526Z,55.37
2023-03-24T13:45:26.029Z,54.30
2023-03-24T13:50:29.064Z,54.09
2023-03-24T13:55:30.758Z,52.64
2023-03-24T14:00:32.653Z,52.09
2023-03-24T14:05:55.820Z,52.71
2023-03-24T14:10:57.547Z,52.93
2023-03-24T14:15:59.305Z,53.53
2023-03-24T14:21:03.702Z,54.96
2023-03-24T14:26:06.120Z,55.63
2023-03-24T14:31:13.239Z,57.10
2023-03-24T14:36:30.469Z,65.54
2023-03-24T14:41:34.214Z,64.49
2023-03-24T14:46:38.363Z,64.80
2023-03-24T14:51:43.236Z,63.65
2023-03-24T14:56:47.020Z,64.25
2023-03-24T15:01:48.808Z,69.58
2023-03-24T15:06:51.935Z,75.03
2023-03-24T15:11:53.655Z,70.68
2023-03-24T15:16:57.046Z,69.20
2023-03-24T15:22:01.506Z,72.94
2023-03-24T15:27:17.333Z,68.85
2023-03-24T15:32:20.052Z,65.66
2023-03-24T15:37:23.911Z,66.53
2023-03-24T15:42:25.600Z,67.49
2023-03-24T15:47:28.790Z,65.45
2023-03-24T15:52:34.845Z,67.13
2023-03-24T15:57:38.359Z,72.33
2023-03-24T16:02:42.349Z,78.76
2023-03-24T16:07:45.629Z,86.68
2023-03-24T16:12:47.314Z,86.65
2023-03-24T16:17:49.080Z,84.78
2023-03-24T16:22:52.062Z,81.36
2023-03-24T16:27:53.747Z,80.95
2023-03-24T16:32:55.622Z,79.47
2023-03-24T16:37:58.689Z,78.77
2023-03-24T16:43:02.115Z,79.08
2023-03-24T16:48:04.140Z,80.32
2023-03-24T16:53:08.774Z,79.87
2023-03-24T16:58:10.754Z,81.74
2023-03-24T17:03:13.968Z,83.60
2023-03-24T17:08:18.612Z,84.94
2023-03-24T17:13:21.118Z,84.98
2023-03-24T17:18:22.835Z,84.96
2023-03-24T17:23:26.518Z,80.96
2023-03-24T17:28:28.377Z,84.71
2023-03-24T17:33:30.307Z,90.92
2023-03-24T17:38:33.347Z,92.76
2023-03-24T17:43:35.363Z,94.13
2023-03-24T17:48:37.193Z,94.70
2023-03-24T17:53:40.325Z,94.69
2023-03-24T17:58:47.052Z,95.11
2023-03-24T18:03:49.683Z,94.71
2023-03-24T18:08:53.631Z,94.72
2023-03-24T18:13:55.779Z,95.17
2023-03-24T18:18:57.990Z,94.88
2023-03-24T18:24:01.066Z,94.92
2023-03-24T18:29:03.474Z,94.34
2023-03-24T18:34:05.784Z,94.56
2023-03-24T18:39:09.447Z,94.66
2023-03-24T18:44:12.384Z,95.34
2023-03-24T18:49:14.526Z,95.86
2023-03-24T18:54:17.738Z,95.56
2023-03-24T18:59:19.577Z,95.90
2023-03-24T19:04:21.320Z,96.16
2023-03-24T19:09:24.551Z,96.23
2023-03-24T19:14:26.546Z,96.36
2023-03-24T19:19:31.255Z,96.49
2023-03-24T19:24:34.346Z,96.43
2023-03-24T19:29:36.127Z,96.04
2023-03-24T19:34:38.748Z,96.01
2023-03-24T19:39:41.819Z,95.87
2023-03-24T19:44:43.462Z,95.10
2023-03-24T19:49:45.156Z,94.84
2023-03-24T19:54:48.468Z,94.51
2023-03-24T19:59:50.202Z,94.31
2023-03-24T20:04:54.937Z,94.54
2023-03-24T20:09:58.109Z,94.38
2023-03-24T20:14:59.921Z,94.45
2023-03-24T20:20:01.652Z,94.60
2023-03-24T20:25:05.287Z,94.80
2023-03-24T20:30:08.404Z,94.82
2023-03-24T20:35:10.811Z,94.81
2023-03-24T20:40:13.927Z,94.77
2023-03-24T20:45:15.912Z,94.84
2023-03-24T20:50:17.797Z,94.49
2023-03-24T20:55:21.550Z,94.34
2023-03-24T21:00:24.122Z,94.26
2023-03-24T21:05:25.999Z,94.02
2023-03-24T21:10:29.100Z,94.22
2023-03-24T21:15:31.665Z,93.94
2023-03-24T21:20:33.591Z,93.91
2023-03-24T21:25:37.408Z,93.39
2023-03-24T21:30:39.138Z,93.47
2023-03-24T21:35:41.196Z,93.40
2023-03-24T21:40:44.320Z,93.30
2023-03-24T21:45:46.259Z,92.97
2023-03-24T21:50:49.240Z,92.59
2023-03-24T21:55:52.740Z,92.41
2023-03-24T22:00:54.848Z,92.91
2023-03-24T22:05:56.731Z,92.91
2023-03-24T22:11:00.647Z,92.68
2023-03-24T22:16:03.389Z,92.82
2023-03-24T22:21:06.944Z,92.77
2023-03-24T22:26:11.382Z,93.06
2023-03-24T22:31:13.914Z,93.01
2023-03-24T22:36:15.849Z,92.48
2023-03-24T22:41:18.909Z,92.42
2023-03-24T22:46:22.208Z,92.65
2023-03-24T22:51:23.920Z,92.54
2023-03-24T22:56:26.957Z,92.74
2023-03-24T23:01:28.652Z,92.30
2023-03-24T23:06:31.002Z,92.35
2023-03-24T23:11:34.050Z,92.25
2023-03-24T23:16:37.664Z,92.78
2023-03-24T23:21:39.594Z,92.61
2023-03-24T23:26:42.637Z,92.41
2023-03-24T23:31:44.348Z,92.43
2023-03-24T23:36:49.839Z,92.29
2023-03-24T23:41:52.898Z,92.17
2023-03-24T23:46:54.558Z,92.10
2023-03-24T23:51:56.379Z,92.17
2023-03-24T23:56:59.521Z,91.50
